Aérodrome :
LOGIN :

S'inscrire | Disclaimer

   EN    FR    IT 

 










Légende :    VFR   VFR Marginal   IFR   IFR Intensif   IFR Très Intensif
Visi : 
Plafond : 
>= 8 km
>= 3000ft
5 à 8 km
1000 à 3000 ft
1500m à 5 km
500 à 1000 ft
800 à 1500m
200 à 500 ft
< 800m
< 200 ft
Symboles :   Orages  Brouillard  Fortes neiges  Fortes précipitations  Vent > 20 kt
SIGMETs :   Divers  Orages  Givrage  Turbulence  Onde Orograph.  Cendres Volcan.






- Altitude de l'aérodrome : 16 ft
- Code IATA : SDR


LEXJ - Santander Cantabria

DERNIER METAR :
  • 090930Z 25003KT 210V280 9999 BKN062 09/06 Q1024

METARs EXPIRÉS :
  • 090900Z 20003KT 170V280 9999 BKN062 09/07 Q1023
  • 090830Z 00000KT 9999 BKN062 08/06 Q1023
  • 090800Z VRB01KT 9999 BKN064 07/06 Q1023
  • 090730Z 21004KT 9999 FEW048 BKN064 06/06 Q1022
  • 090700Z 22004KT 9000 SCT034 BKN058 06/06 Q1023

TAF TAF LEXJ
Valide du 09 à 09h jusqu'au 10 à 09h UTC


090800Z 0909/1009 VRB04KT 9999 SCT020 BKN035 TX12/0914Z TN03/1003Z
PROB30
TEMPO 0912/0918 36010KT



MET'MAP, la Météo Aéronautique d'un coup d'oeil ! - Copyright ORBIFLY Décembre 2007 - Disclaimer

ORBIFLY MET'MAP TEAM :

Programmation & Développement : Alexandra Zaïnal
Sur une idée originale de : Baudouin d'Aumeries
Assistance à la programmation : Marc-Olivier Méhu
Soutien technique & logistique : Manuel Goepfert

Contact : metmap@orbifly.com




SOURCES & CREDITS :

   NOAA